sensor_id;sensor_type;location;lat;lon;timestamp;P1;durP1;ratioP1;P2;durP2;ratioP2
13967;SDS011;39536;52.198;9.920;2022-11-20T00:00:47;18.63;;;16.20;;
13967;SDS011;39536;52.198;9.920;2022-11-20T00:03:13;16.63;;;14.87;;
13967;SDS011;39536;52.198;9.920;2022-11-20T00:05:40;18.53;;;16.50;;
13967;SDS011;39536;52.198;9.920;2022-11-20T00:08:06;19.17;;;15.83;;
13967;SDS011;39536;52.198;9.920;2022-11-20T00:10:35;17.83;;;15.87;;
13967;SDS011;39536;52.198;9.920;2022-11-20T00:13:02;22.10;;;18.33;;
13967;SDS011;39536;52.198;9.920;2022-11-20T00:15:30;26.60;;;19.53;;
13967;SDS011;39536;52.198;9.920;2022-11-20T00:17:56;30.40;;;20.03;;
13967;SDS011;39536;52.198;9.920;2022-11-20T00:20:23;31.77;;;20.27;;
13967;SDS011;39536;52.198;9.920;2022-11-20T00:22:49;28.47;;;19.60;;
13967;SDS011;39536;52.198;9.920;2022-11-20T00:25:16;24.30;;;17.97;;
13967;SDS011;39536;52.198;9.920;2022-11-20T00:27:43;18.80;;;16.90;;
13967;SDS011;39536;52.198;9.920;2022-11-20T00:30:09;23.40;;;17.60;;
13967;SDS011;39536;52.198;9.920;2022-11-20T00:32:38;22.23;;;16.60;;
13967;SDS011;39536;52.198;9.920;2022-11-20T00:35:04;19.73;;;16.97;;
13967;SDS011;39536;52.198;9.920;2022-11-20T00:37:31;18.93;;;16.97;;
13967;SDS011;39536;52.198;9.920;2022-11-20T00:39:58;22.47;;;18.27;;
13967;SDS011;39536;52.198;9.920;2022-11-20T00:42:24;21.87;;;17.33;;
13967;SDS011;39536;52.198;9.920;2022-11-20T00:44:51;23.43;;;18.13;;
13967;SDS011;39536;52.198;9.920;2022-11-20T00:47:17;21.33;;;18.67;;
13967;SDS011;39536;52.198;9.920;2022-11-20T00:49:45;27.70;;;19.13;;
13967;SDS011;39536;52.198;9.920;2022-11-20T00:52:12;27.43;;;20.00;;
13967;SDS011;39536;52.198;9.920;2022-11-20T00:54:38;21.13;;;18.57;;
13967;SDS011;39536;52.198;9.920;2022-11-20T00:57:04;19.73;;;16.73;;
13967;SDS011;39536;52.198;9.920;2022-11-20T00:59:31;21.97;;;17.23;;
13967;SDS011;39536;52.198;9.920;2022-11-20T01:01:57;19.67;;;17.33;;
13967;SDS011;39536;52.198;9.920;2022-11-20T01:04:24;18.43;;;16.50;;
13967;SDS011;39536;52.198;9.920;2022-11-20T01:06:52;19.50;;;16.47;;
13967;SDS011;39536;52.198;9.920;2022-11-20T01:09:18;19.63;;;16.17;;
13967;SDS011;39536;52.198;9.920;2022-11-20T01:11:45;18.73;;;15.97;;
13967;SDS011;39536;52.198;9.920;2022-11-20T01:14:12;18.47;;;15.30;;
13967;SDS011;39536;52.198;9.920;2022-11-20T01:16:40;17.40;;;13.77;;
13967;SDS011;39536;52.198;9.920;2022-11-20T01:19:09;15.00;;;13.37;;
13967;SDS011;39536;52.198;9.920;2022-11-20T01:21:38;14.83;;;13.43;;
13967;SDS011;39536;52.198;9.920;2022-11-20T01:24:08;14.10;;;12.63;;
13967;SDS011;39536;52.198;9.920;2022-11-20T01:26:38;15.40;;;13.47;;
13967;SDS011;39536;52.198;9.920;2022-11-20T01:29:06;15.63;;;13.17;;
13967;SDS011;39536;52.198;9.920;2022-11-20T01:31:34;15.63;;;13.27;;
13967;SDS011;39536;52.198;9.920;2022-11-20T01:34:02;14.30;;;12.80;;
13967;SDS011;39536;52.198;9.920;2022-11-20T01:36:30;14.00;;;12.43;;
13967;SDS011;39536;52.198;9.920;2022-11-20T01:38:59;15.63;;;13.87;;
13967;SDS011;39536;52.198;9.920;2022-11-20T01:41:29;15.63;;;13.97;;
13967;SDS011;39536;52.198;9.920;2022-11-20T01:44:16;14.57;;;13.07;;
13967;SDS011;39536;52.198;9.920;2022-11-20T01:46:47;13.80;;;12.37;;
13967;SDS011;39536;52.198;9.920;2022-11-20T01:49:22;17.87;;;13.43;;
13967;SDS011;39536;52.198;9.920;2022-11-20T01:51:52;14.83;;;13.33;;
13967;SDS011;39536;52.198;9.920;2022-11-20T01:54:23;15.27;;;12.23;;
13967;SDS011;39536;52.198;9.920;2022-11-20T01:56:55;14.67;;;13.10;;
13967;SDS011;39536;52.198;9.920;2022-11-20T01:59:23;13.93;;;12.63;;
13967;SDS011;39536;52.198;9.920;2022-11-20T02:01:52;14.50;;;12.77;;
13967;SDS011;39536;52.198;9.920;2022-11-20T02:04:20;13.97;;;12.57;;
13967;SDS011;39536;52.198;9.920;2022-11-20T02:06:48;15.77;;;13.23;;
13967;SDS011;39536;52.198;9.920;2022-11-20T02:09:18;13.93;;;12.43;;
13967;SDS011;39536;52.198;9.920;2022-11-20T02:11:45;13.57;;;12.17;;
13967;SDS011;39536;52.198;9.920;2022-11-20T02:14:13;13.13;;;11.83;;
13967;SDS011;39536;52.198;9.920;2022-11-20T02:16:40;13.37;;;12.00;;
13967;SDS011;39536;52.198;9.920;2022-11-20T02:19:13;13.80;;;12.37;;
13967;SDS011;39536;52.198;9.920;2022-11-20T02:21:47;12.57;;;11.23;;
13967;SDS011;39536;52.198;9.920;2022-11-20T02:24:22;13.07;;;11.33;;
13967;SDS011;39536;52.198;9.920;2022-11-20T02:26:49;13.40;;;12.10;;
13967;SDS011;39536;52.198;9.920;2022-11-20T02:29:19;12.60;;;11.40;;
13967;SDS011;39536;52.198;9.920;2022-11-20T02:31:51;13.93;;;12.53;;
13967;SDS011;39536;52.198;9.920;2022-11-20T02:34:20;13.83;;;12.10;;
13967;SDS011;39536;52.198;9.920;2022-11-20T02:36:47;13.30;;;11.97;;
13967;SDS011;39536;52.198;9.920;2022-11-20T02:39:15;12.60;;;11.30;;
13967;SDS011;39536;52.198;9.920;2022-11-20T02:41:44;13.37;;;12.07;;
13967;SDS011;39536;52.198;9.920;2022-11-20T02:44:10;13.40;;;12.00;;
13967;SDS011;39536;52.198;9.920;2022-11-20T02:46:37;13.93;;;12.53;;
13967;SDS011;39536;52.198;9.920;2022-11-20T02:49:04;13.43;;;12.13;;
13967;SDS011;39536;52.198;9.920;2022-11-20T02:51:31;13.17;;;11.80;;
13967;SDS011;39536;52.198;9.920;2022-11-20T02:53:58;13.20;;;11.90;;
13967;SDS011;39536;52.198;9.920;2022-11-20T02:56:24;14.70;;;13.23;;
13967;SDS011;39536;52.198;9.920;2022-11-20T02:58:53;14.30;;;12.03;;
13967;SDS011;39536;52.198;9.920;2022-11-20T03:01:19;13.87;;;12.47;;
13967;SDS011;39536;52.198;9.920;2022-11-20T03:03:46;13.13;;;11.93;;
13967;SDS011;39536;52.198;9.920;2022-11-20T03:06:13;13.17;;;11.90;;
13967;SDS011;39536;52.198;9.920;2022-11-20T03:08:40;13.17;;;11.50;;
13967;SDS011;39536;52.198;9.920;2022-11-20T03:11:07;13.20;;;11.90;;
13967;SDS011;39536;52.198;9.920;2022-11-20T03:13:34;12.17;;;10.90;;
13967;SDS011;39536;52.198;9.920;2022-11-20T03:16:06;12.63;;;11.43;;
13967;SDS011;39536;52.198;9.920;2022-11-20T03:18:36;12.47;;;11.20;;
13967;SDS011;39536;52.198;9.920;2022-11-20T03:21:04;10.80;;;9.70;;
13967;SDS011;39536;52.198;9.920;2022-11-20T03:23:31;11.57;;;10.37;;
13967;SDS011;39536;52.198;9.920;2022-11-20T03:26:12;11.60;;;10.40;;
13967;SDS011;39536;52.198;9.920;2022-11-20T03:28:40;12.97;;;11.23;;
13967;SDS011;39536;52.198;9.920;2022-11-20T03:31:09;13.17;;;11.00;;
13967;SDS011;39536;52.198;9.920;2022-11-20T03:33:37;12.10;;;10.90;;
13967;SDS011;39536;52.198;9.920;2022-11-20T03:36:04;11.50;;;10.40;;
13967;SDS011;39536;52.198;9.920;2022-11-20T03:38:33;12.27;;;11.07;;
13967;SDS011;39536;52.198;9.920;2022-11-20T03:41:00;10.97;;;9.97;;
13967;SDS011;39536;52.198;9.920;2022-11-20T03:43:27;11.23;;;10.13;;
13967;SDS011;39536;52.198;9.920;2022-11-20T03:45:54;16.27;;;10.73;;
13967;SDS011;39536;52.198;9.920;2022-11-20T03:48:22;12.67;;;11.27;;
13967;SDS011;39536;52.198;9.920;2022-11-20T03:50:49;12.20;;;10.93;;
13967;SDS011;39536;52.198;9.920;2022-11-20T03:53:15;11.73;;;10.63;;
13967;SDS011;39536;52.198;9.920;2022-11-20T03:55:42;12.77;;;11.17;;
13967;SDS011;39536;52.198;9.920;2022-11-20T03:58:09;13.90;;;11.27;;
13967;SDS011;39536;52.198;9.920;2022-11-20T04:00:36;11.73;;;10.03;;
13967;SDS011;39536;52.198;9.920;2022-11-20T04:03:02;12.93;;;11.63;;
13967;SDS011;39536;52.198;9.920;2022-11-20T04:05:32;11.63;;;10.47;;
13967;SDS011;39536;52.198;9.920;2022-11-20T04:07:59;11.70;;;10.50;;
13967;SDS011;39536;52.198;9.920;2022-11-20T04:10:25;12.50;;;11.20;;
13967;SDS011;39536;52.198;9.920;2022-11-20T04:12:52;12.30;;;11.07;;
13967;SDS011;39536;52.198;9.920;2022-11-20T04:15:18;12.00;;;10.70;;
13967;SDS011;39536;52.198;9.920;2022-11-20T04:17:45;11.30;;;10.20;;
13967;SDS011;39536;52.198;9.920;2022-11-20T04:20:11;11.27;;;10.17;;
13967;SDS011;39536;52.198;9.920;2022-11-20T04:22:39;11.53;;;10.33;;
13967;SDS011;39536;52.198;9.920;2022-11-20T04:25:09;11.50;;;10.30;;
13967;SDS011;39536;52.198;9.920;2022-11-20T04:27:36;11.67;;;9.90;;
13967;SDS011;39536;52.198;9.920;2022-11-20T04:30:02;12.07;;;10.97;;
13967;SDS011;39536;52.198;9.920;2022-11-20T04:32:29;11.57;;;10.47;;
13967;SDS011;39536;52.198;9.920;2022-11-20T04:34:56;11.03;;;10.03;;
13967;SDS011;39536;52.198;9.920;2022-11-20T04:37:22;10.93;;;9.70;;
13967;SDS011;39536;52.198;9.920;2022-11-20T04:39:50;11.10;;;10.03;;
13967;SDS011;39536;52.198;9.920;2022-11-20T04:42:17;11.40;;;10.30;;
13967;SDS011;39536;52.198;9.920;2022-11-20T04:44:55;11.13;;;10.03;;
13967;SDS011;39536;52.198;9.920;2022-11-20T04:47:22;12.80;;;10.13;;
13967;SDS011;39536;52.198;9.920;2022-11-20T04:49:49;10.80;;;9.20;;
13967;SDS011;39536;52.198;9.920;2022-11-20T04:52:32;11.47;;;10.23;;
13967;SDS011;39536;52.198;9.920;2022-11-20T04:55:21;10.47;;;9.47;;
13967;SDS011;39536;52.198;9.920;2022-11-20T04:57:49;10.50;;;9.43;;
13967;SDS011;39536;52.198;9.920;2022-11-20T05:00:16;11.00;;;9.87;;
13967;SDS011;39536;52.198;9.920;2022-11-20T05:02:44;12.73;;;10.17;;
13967;SDS011;39536;52.198;9.920;2022-11-20T05:09:06;11.50;;;10.47;;
13967;SDS011;39536;52.198;9.920;2022-11-20T05:11:34;11.73;;;9.93;;
13967;SDS011;39536;52.198;9.920;2022-11-20T05:14:01;11.83;;;9.43;;
13967;SDS011;39536;52.198;9.920;2022-11-20T05:17:16;10.63;;;9.63;;
13967;SDS011;39536;52.198;9.920;2022-11-20T05:19:43;10.63;;;9.53;;
13967;SDS011;39536;52.198;9.920;2022-11-20T05:25:34;11.17;;;10.07;;
13967;SDS011;39536;52.198;9.920;2022-11-20T05:28:41;11.07;;;10.00;;
13967;SDS011;39536;52.198;9.920;2022-11-20T05:31:09;10.47;;;9.47;;
13967;SDS011;39536;52.198;9.920;2022-11-20T05:33:39;10.73;;;9.63;;
13967;SDS011;39536;52.198;9.920;2022-11-20T05:36:07;12.13;;;10.20;;
13967;SDS011;39536;52.198;9.920;2022-11-20T05:38:34;11.97;;;10.87;;
13967;SDS011;39536;52.198;9.920;2022-11-20T05:41:04;12.43;;;11.23;;
13967;SDS011;39536;52.198;9.920;2022-11-20T05:43:32;11.47;;;10.30;;
13967;SDS011;39536;52.198;9.920;2022-11-20T05:46:01;11.93;;;10.53;;
13967;SDS011;39536;52.198;9.920;2022-11-20T05:48:28;12.83;;;11.50;;
13967;SDS011;39536;52.198;9.920;2022-11-20T05:50:56;15.83;;;11.20;;
13967;SDS011;39536;52.198;9.920;2022-11-20T05:53:23;12.37;;;11.17;;
13967;SDS011;39536;52.198;9.920;2022-11-20T05:55:55;11.80;;;10.60;;
13967;SDS011;39536;52.198;9.920;2022-11-20T05:58:22;14.77;;;11.07;;
13967;SDS011;39536;52.198;9.920;2022-11-20T06:00:49;12.70;;;11.50;;
13967;SDS011;39536;52.198;9.920;2022-11-20T06:03:17;13.37;;;11.43;;
13967;SDS011;39536;52.198;9.920;2022-11-20T06:05:43;11.97;;;10.83;;
13967;SDS011;39536;52.198;9.920;2022-11-20T06:08:10;12.60;;;11.40;;
13967;SDS011;39536;52.198;9.920;2022-11-20T06:10:37;11.83;;;10.63;;
13967;SDS011;39536;52.198;9.920;2022-11-20T06:13:03;10.80;;;9.80;;
13967;SDS011;39536;52.198;9.920;2022-11-20T06:15:30;12.80;;;11.43;;
13967;SDS011;39536;52.198;9.920;2022-11-20T06:17:56;11.93;;;10.70;;
13967;SDS011;39536;52.198;9.920;2022-11-20T06:20:25;12.13;;;10.87;;
13967;SDS011;39536;52.198;9.920;2022-11-20T06:22:51;11.30;;;10.23;;
13967;SDS011;39536;52.198;9.920;2022-11-20T06:25:18;11.93;;;10.73;;
13967;SDS011;39536;52.198;9.920;2022-11-20T06:27:44;10.90;;;9.80;;
13967;SDS011;39536;52.198;9.920;2022-11-20T06:30:11;11.83;;;10.73;;
13967;SDS011;39536;52.198;9.920;2022-11-20T06:32:38;13.23;;;11.83;;
13967;SDS011;39536;52.198;9.920;2022-11-20T06:35:05;12.07;;;10.87;;
13967;SDS011;39536;52.198;9.920;2022-11-20T06:37:33;11.37;;;10.30;;
13967;SDS011;39536;52.198;9.920;2022-11-20T06:40:00;14.93;;;13.43;;
13967;SDS011;39536;52.198;9.920;2022-11-20T06:42:26;18.30;;;16.23;;
13967;SDS011;39536;52.198;9.920;2022-11-20T06:44:53;13.23;;;12.03;;
13967;SDS011;39536;52.198;9.920;2022-11-20T06:47:20;16.97;;;14.50;;
13967;SDS011;39536;52.198;9.920;2022-11-20T06:49:47;15.27;;;13.67;;
13967;SDS011;39536;52.198;9.920;2022-11-20T06:52:13;15.23;;;13.13;;
13967;SDS011;39536;52.198;9.920;2022-11-20T06:54:41;12.80;;;11.27;;
13967;SDS011;39536;52.198;9.920;2022-11-20T06:57:08;12.57;;;11.07;;
13967;SDS011;39536;52.198;9.920;2022-11-20T06:59:34;12.03;;;10.93;;
13967;SDS011;39536;52.198;9.920;2022-11-20T07:02:01;13.10;;;11.80;;
13967;SDS011;39536;52.198;9.920;2022-11-20T07:04:27;12.80;;;11.60;;
13967;SDS011;39536;52.198;9.920;2022-11-20T07:06:54;12.70;;;11.40;;
13967;SDS011;39536;52.198;9.920;2022-11-20T07:09:20;20.87;;;16.00;;
13967;SDS011;39536;52.198;9.920;2022-11-20T07:11:48;17.37;;;14.70;;
13967;SDS011;39536;52.198;9.920;2022-11-20T07:14:15;13.23;;;11.83;;
13967;SDS011;39536;52.198;9.920;2022-11-20T07:16:41;12.73;;;11.53;;
13967;SDS011;39536;52.198;9.920;2022-11-20T07:19:08;12.53;;;11.33;;
13967;SDS011;39536;52.198;9.920;2022-11-20T07:21:34;12.53;;;11.33;;
13967;SDS011;39536;52.198;9.920;2022-11-20T07:24:01;11.67;;;10.50;;
13967;SDS011;39536;52.198;9.920;2022-11-20T07:26:28;12.33;;;11.03;;
13967;SDS011;39536;52.198;9.920;2022-11-20T07:28:56;12.40;;;11.30;;
13967;SDS011;39536;52.198;9.920;2022-11-20T07:31:22;12.63;;;11.37;;
13967;SDS011;39536;52.198;9.920;2022-11-20T07:33:49;13.20;;;11.97;;
13967;SDS011;39536;52.198;9.920;2022-11-20T07:36:15;12.43;;;11.23;;
13967;SDS011;39536;52.198;9.920;2022-11-20T07:38:42;11.90;;;10.70;;
13967;SDS011;39536;52.198;9.920;2022-11-20T07:41:08;12.67;;;11.47;;
13967;SDS011;39536;52.198;9.920;2022-11-20T07:43:35;11.97;;;10.80;;
13967;SDS011;39536;52.198;9.920;2022-11-20T07:46:03;12.70;;;11.53;;
13967;SDS011;39536;52.198;9.920;2022-11-20T07:48:30;12.63;;;11.43;;
13967;SDS011;39536;52.198;9.920;2022-11-20T07:50:56;12.70;;;11.40;;
13967;SDS011;39536;52.198;9.920;2022-11-20T07:53:23;13.47;;;12.17;;
13967;SDS011;39536;52.198;9.920;2022-11-20T07:55:50;13.43;;;12.13;;
13967;SDS011;39536;52.198;9.920;2022-11-20T07:58:18;13.67;;;12.37;;
13967;SDS011;39536;52.198;9.920;2022-11-20T08:00:45;12.83;;;11.60;;
13967;SDS011;39536;52.198;9.920;2022-11-20T08:03:13;13.20;;;12.00;;
13967;SDS011;39536;52.198;9.920;2022-11-20T08:05:40;16.63;;;12.20;;
13967;SDS011;39536;52.198;9.920;2022-11-20T08:08:07;13.00;;;11.77;;
13967;SDS011;39536;52.198;9.920;2022-11-20T08:10:33;14.00;;;12.60;;
13967;SDS011;39536;52.198;9.920;2022-11-20T08:13:00;15.30;;;13.40;;
13967;SDS011;39536;52.198;9.920;2022-11-20T08:15:47;13.97;;;12.57;;
13967;SDS011;39536;52.198;9.920;2022-11-20T08:21:28;13.20;;;11.90;;
13967;SDS011;39536;52.198;9.920;2022-11-20T08:23:54;13.30;;;12.03;;
13967;SDS011;39536;52.198;9.920;2022-11-20T08:26:21;13.33;;;12.13;;
13967;SDS011;39536;52.198;9.920;2022-11-20T08:28:48;13.53;;;12.27;;
13967;SDS011;39536;52.198;9.920;2022-11-20T08:31:14;13.43;;;12.13;;
13967;SDS011;39536;52.198;9.920;2022-11-20T08:33:41;14.20;;;12.57;;
13967;SDS011;39536;52.198;9.920;2022-11-20T08:36:08;13.70;;;12.50;;
13967;SDS011;39536;52.198;9.920;2022-11-20T08:38:36;14.00;;;12.13;;
13967;SDS011;39536;52.198;9.920;2022-11-20T08:41:03;12.67;;;11.27;;
13967;SDS011;39536;52.198;9.920;2022-11-20T08:43:48;12.67;;;11.57;;
13967;SDS011;39536;52.198;9.920;2022-11-20T08:46:15;13.60;;;12.17;;
13967;SDS011;39536;52.198;9.920;2022-11-20T08:48:41;12.50;;;11.40;;
13967;SDS011;39536;52.198;9.920;2022-11-20T08:51:09;12.63;;;11.43;;
13967;SDS011;39536;52.198;9.920;2022-11-20T08:53:37;13.90;;;12.33;;
13967;SDS011;39536;52.198;9.920;2022-11-20T08:56:04;14.57;;;12.50;;
13967;SDS011;39536;52.198;9.920;2022-11-20T08:58:31;14.23;;;12.83;;
13967;SDS011;39536;52.198;9.920;2022-11-20T09:00:58;13.57;;;12.30;;
13967;SDS011;39536;52.198;9.920;2022-11-20T09:03:24;15.13;;;13.27;;
13967;SDS011;39536;52.198;9.920;2022-11-20T09:05:56;15.33;;;13.83;;
13967;SDS011;39536;52.198;9.920;2022-11-20T09:08:24;14.27;;;12.87;;
13967;SDS011;39536;52.198;9.920;2022-11-20T09:10:52;14.93;;;13.30;;
13967;SDS011;39536;52.198;9.920;2022-11-20T09:13:19;16.23;;;14.70;;
13967;SDS011;39536;52.198;9.920;2022-11-20T09:15:46;15.47;;;13.97;;
13967;SDS011;39536;52.198;9.920;2022-11-20T09:18:13;13.67;;;12.23;;
13967;SDS011;39536;52.198;9.920;2022-11-20T09:20:39;11.67;;;10.50;;
13967;SDS011;39536;52.198;9.920;2022-11-20T09:23:06;11.40;;;10.40;;
13967;SDS011;39536;52.198;9.920;2022-11-20T09:25:33;11.60;;;10.50;;
13967;SDS011;39536;52.198;9.920;2022-11-20T09:28:01;12.23;;;10.93;;
13967;SDS011;39536;52.198;9.920;2022-11-20T09:30:28;12.67;;;11.47;;
13967;SDS011;39536;52.198;9.920;2022-11-20T09:32:55;10.73;;;9.67;;
13967;SDS011;39536;52.198;9.920;2022-11-20T09:35:22;13.73;;;9.53;;
13967;SDS011;39536;52.198;9.920;2022-11-20T09:37:49;10.13;;;8.37;;
13967;SDS011;39536;52.198;9.920;2022-11-20T09:40:17;8.90;;;8.10;;
13967;SDS011;39536;52.198;9.920;2022-11-20T09:42:47;8.87;;;8.03;;
13967;SDS011;39536;52.198;9.920;2022-11-20T09:45:23;9.13;;;8.33;;
13967;SDS011;39536;52.198;9.920;2022-11-20T09:47:59;14.47;;;9.17;;
13967;SDS011;39536;52.198;9.920;2022-11-20T09:50:35;12.43;;;8.90;;
13967;SDS011;39536;52.198;9.920;2022-11-20T09:53:11;10.30;;;9.40;;
13967;SDS011;39536;52.198;9.920;2022-11-20T09:55:39;14.07;;;9.73;;
13967;SDS011;39536;52.198;9.920;2022-11-20T09:58:07;9.27;;;8.37;;
13967;SDS011;39536;52.198;9.920;2022-11-20T10:00:43;11.10;;;9.33;;
13967;SDS011;39536;52.198;9.920;2022-11-20T10:03:12;9.10;;;8.20;;
13967;SDS011;39536;52.198;9.920;2022-11-20T10:05:41;8.83;;;7.93;;
13967;SDS011;39536;52.198;9.920;2022-11-20T10:08:13;9.90;;;9.00;;
13967;SDS011;39536;52.198;9.920;2022-11-20T10:10:44;9.27;;;8.37;;
13967;SDS011;39536;52.198;9.920;2022-11-20T10:13:17;9.20;;;8.30;;
13967;SDS011;39536;52.198;9.920;2022-11-20T10:15:58;14.23;;;8.90;;
13967;SDS011;39536;52.198;9.920;2022-11-20T10:18:40;8.67;;;7.97;;
13967;SDS011;39536;52.198;9.920;2022-11-20T10:21:18;9.30;;;8.40;;
13967;SDS011;39536;52.198;9.920;2022-11-20T10:23:55;9.83;;;8.87;;
13967;SDS011;39536;52.198;9.920;2022-11-20T10:26:38;9.00;;;8.10;;
13967;SDS011;39536;52.198;9.920;2022-11-20T10:29:14;7.67;;;6.97;;
13967;SDS011;39536;52.198;9.920;2022-11-20T10:31:44;8.77;;;7.97;;
13967;SDS011;39536;52.198;9.920;2022-11-20T10:34:17;14.67;;;9.50;;
13967;SDS011;39536;52.198;9.920;2022-11-20T10:36:49;11.27;;;10.07;;
13967;SDS011;39536;52.198;9.920;2022-11-20T10:39:22;10.57;;;9.57;;
13967;SDS011;39536;52.198;9.920;2022-11-20T10:41:56;10.97;;;9.77;;
13967;SDS011;39536;52.198;9.920;2022-11-20T10:44:25;18.20;;;10.23;;
13967;SDS011;39536;52.198;9.920;2022-11-20T10:47:13;11.10;;;9.27;;
13967;SDS011;39536;52.198;9.920;2022-11-20T10:49:41;13.03;;;9.87;;
13967;SDS011;39536;52.198;9.920;2022-11-20T10:52:10;10.90;;;9.90;;
13967;SDS011;39536;52.198;9.920;2022-11-20T10:54:47;11.33;;;10.30;;
13967;SDS011;39536;52.198;9.920;2022-11-20T10:57:23;10.80;;;9.80;;
13967;SDS011;39536;52.198;9.920;2022-11-20T11:00:03;11.30;;;10.10;;
13967;SDS011;39536;52.198;9.920;2022-11-20T11:02:34;11.07;;;10.07;;
13967;SDS011;39536;52.198;9.920;2022-11-20T11:05:09;11.53;;;10.33;;
13967;SDS011;39536;52.198;9.920;2022-11-20T11:07:47;11.57;;;10.57;;
13967;SDS011;39536;52.198;9.920;2022-11-20T11:10:16;13.03;;;11.60;;
13967;SDS011;39536;52.198;9.920;2022-11-20T11:12:45;13.23;;;11.03;;
13967;SDS011;39536;52.198;9.920;2022-11-20T11:15:14;14.57;;;10.87;;
13967;SDS011;39536;52.198;9.920;2022-11-20T11:17:53;12.33;;;10.07;;
13967;SDS011;39536;52.198;9.920;2022-11-20T11:20:20;10.27;;;9.17;;
13967;SDS011;39536;52.198;9.920;2022-11-20T11:22:49;10.57;;;9.57;;
13967;SDS011;39536;52.198;9.920;2022-11-20T11:25:22;10.87;;;9.80;;
13967;SDS011;39536;52.198;9.920;2022-11-20T11:27:51;9.83;;;8.90;;
13967;SDS011;39536;52.198;9.920;2022-11-20T11:30:20;10.40;;;9.40;;
13967;SDS011;39536;52.198;9.920;2022-11-20T11:32:47;11.47;;;8.97;;
13967;SDS011;39536;52.198;9.920;2022-11-20T11:35:23;10.83;;;9.40;;
13967;SDS011;39536;52.198;9.920;2022-11-20T11:37:51;10.53;;;9.57;;
13967;SDS011;39536;52.198;9.920;2022-11-20T11:40:21;11.13;;;10.13;;
13967;SDS011;39536;52.198;9.920;2022-11-20T11:42:53;10.87;;;9.87;;
13967;SDS011;39536;52.198;9.920;2022-11-20T11:45:22;10.20;;;9.27;;
13967;SDS011;39536;52.198;9.920;2022-11-20T11:47:49;11.10;;;10.10;;
13967;SDS011;39536;52.198;9.920;2022-11-20T11:50:19;10.87;;;9.53;;
13967;SDS011;39536;52.198;9.920;2022-11-20T11:52:51;9.97;;;8.97;;
13967;SDS011;39536;52.198;9.920;2022-11-20T11:55:29;12.13;;;9.80;;
13967;SDS011;39536;52.198;9.920;2022-11-20T11:58:11;14.33;;;12.07;;
13967;SDS011;39536;52.198;9.920;2022-11-20T12:00:45;12.97;;;11.73;;
13967;SDS011;39536;52.198;9.920;2022-11-20T12:03:18;12.63;;;11.07;;
13967;SDS011;39536;52.198;9.920;2022-11-20T12:05:49;19.03;;;13.53;;
13967;SDS011;39536;52.198;9.920;2022-11-20T12:08:24;12.17;;;10.70;;
13967;SDS011;39536;52.198;9.920;2022-11-20T12:10:55;11.40;;;10.30;;
13967;SDS011;39536;52.198;9.920;2022-11-20T12:13:30;15.80;;;13.33;;
13967;SDS011;39536;52.198;9.920;2022-11-20T12:16:07;10.97;;;9.33;;
13967;SDS011;39536;52.198;9.920;2022-11-20T12:18:38;11.30;;;10.13;;
13967;SDS011;39536;52.198;9.920;2022-11-20T12:21:09;10.10;;;9.20;;
13967;SDS011;39536;52.198;9.920;2022-11-20T12:23:48;11.50;;;10.40;;
13967;SDS011;39536;52.198;9.920;2022-11-20T12:26:27;11.67;;;10.47;;
13967;SDS011;39536;52.198;9.920;2022-11-20T12:29:06;11.17;;;10.07;;
13967;SDS011;39536;52.198;9.920;2022-11-20T12:31:41;10.87;;;9.87;;
13967;SDS011;39536;52.198;9.920;2022-11-20T12:34:26;11.13;;;10.00;;
13967;SDS011;39536;52.198;9.920;2022-11-20T12:37:16;12.10;;;11.00;;
13967;SDS011;39536;52.198;9.920;2022-11-20T12:39:51;11.37;;;10.37;;
13967;SDS011;39536;52.198;9.920;2022-11-20T12:42:28;11.47;;;10.27;;
13967;SDS011;39536;52.198;9.920;2022-11-20T12:45:28;12.00;;;10.90;;
13967;SDS011;39536;52.198;9.920;2022-11-20T12:51:24;10.17;;;9.17;;
13967;SDS011;39536;52.198;9.920;2022-11-20T12:54:03;9.77;;;8.90;;
13967;SDS011;39536;52.198;9.920;2022-11-20T12:56:43;12.33;;;10.70;;
13967;SDS011;39536;52.198;9.920;2022-11-20T12:59:27;13.83;;;11.00;;
13967;SDS011;39536;52.198;9.920;2022-11-20T13:02:14;11.77;;;10.67;;
13967;SDS011;39536;52.198;9.920;2022-11-20T13:05:03;11.70;;;10.70;;
13967;SDS011;39536;52.198;9.920;2022-11-20T13:07:43;11.00;;;10.07;;
13967;SDS011;39536;52.198;9.920;2022-11-20T13:10:13;11.60;;;10.60;;
13967;SDS011;39536;52.198;9.920;2022-11-20T13:12:46;11.87;;;10.67;;
13967;SDS011;39536;52.198;9.920;2022-11-20T13:15:18;11.50;;;10.50;;
13967;SDS011;39536;52.198;9.920;2022-11-20T13:17:56;11.23;;;10.20;;
13967;SDS011;39536;52.198;9.920;2022-11-20T13:20:25;11.77;;;10.57;;
13967;SDS011;39536;52.198;9.920;2022-11-20T13:22:53;11.43;;;10.40;;
13967;SDS011;39536;52.198;9.920;2022-11-20T13:25:23;11.40;;;10.30;;
13967;SDS011;39536;52.198;9.920;2022-11-20T13:27:52;11.93;;;10.83;;
13967;SDS011;39536;52.198;9.920;2022-11-20T13:30:19;11.90;;;10.80;;
13967;SDS011;39536;52.198;9.920;2022-11-20T13:32:50;12.20;;;11.00;;
13967;SDS011;39536;52.198;9.920;2022-11-20T13:35:23;10.80;;;9.87;;
13967;SDS011;39536;52.198;9.920;2022-11-20T13:37:59;12.67;;;10.97;;
13967;SDS011;39536;52.198;9.920;2022-11-20T13:40:27;11.57;;;10.57;;
13967;SDS011;39536;52.198;9.920;2022-11-20T13:42:56;11.40;;;10.30;;
13967;SDS011;39536;52.198;9.920;2022-11-20T13:45:30;10.43;;;8.80;;
13967;SDS011;39536;52.198;9.920;2022-11-20T13:47:59;10.30;;;9.43;;
13967;SDS011;39536;52.198;9.920;2022-11-20T13:50:39;11.63;;;10.53;;
13967;SDS011;39536;52.198;9.920;2022-11-20T13:53:15;11.97;;;10.63;;
13967;SDS011;39536;52.198;9.920;2022-11-20T13:55:58;10.47;;;9.50;;
13967;SDS011;39536;52.198;9.920;2022-11-20T13:58:30;10.53;;;9.57;;
13967;SDS011;39536;52.198;9.920;2022-11-20T14:01:10;15.23;;;9.17;;
13967;SDS011;39536;52.198;9.920;2022-11-20T14:03:41;9.90;;;8.90;;
13967;SDS011;39536;52.198;9.920;2022-11-20T14:06:11;9.90;;;9.00;;
13967;SDS011;39536;52.198;9.920;2022-11-20T14:08:42;10.27;;;9.23;;
13967;SDS011;39536;52.198;9.920;2022-11-20T14:11:16;10.03;;;9.13;;
13967;SDS011;39536;52.198;9.920;2022-11-20T14:13:53;10.30;;;9.37;;
13967;SDS011;39536;52.198;9.920;2022-11-20T14:16:21;9.80;;;8.93;;
13967;SDS011;39536;52.198;9.920;2022-11-20T14:18:48;10.37;;;9.47;;
13967;SDS011;39536;52.198;9.920;2022-11-20T14:21:21;11.07;;;9.70;;
13967;SDS011;39536;52.198;9.920;2022-11-20T14:23:49;10.43;;;9.53;;
13967;SDS011;39536;52.198;9.920;2022-11-20T14:26:18;10.77;;;9.77;;
13967;SDS011;39536;52.198;9.920;2022-11-20T14:28:47;13.93;;;9.57;;
13967;SDS011;39536;52.198;9.920;2022-11-20T14:31:18;10.90;;;9.93;;
13967;SDS011;39536;52.198;9.920;2022-11-20T14:33:50;11.40;;;10.40;;
13967;SDS011;39536;52.198;9.920;2022-11-20T14:36:18;11.20;;;10.13;;
13967;SDS011;39536;52.198;9.920;2022-11-20T14:38:46;14.50;;;10.83;;
13967;SDS011;39536;52.198;9.920;2022-11-20T14:41:17;10.07;;;9.07;;
13967;SDS011;39536;52.198;9.920;2022-11-20T14:43:45;11.60;;;10.47;;
13967;SDS011;39536;52.198;9.920;2022-11-20T14:46:13;12.57;;;9.87;;
13967;SDS011;39536;52.198;9.920;2022-11-20T14:48:43;11.37;;;10.10;;
13967;SDS011;39536;52.198;9.920;2022-11-20T14:51:22;10.80;;;9.67;;
13967;SDS011;39536;52.198;9.920;2022-11-20T14:53:52;10.70;;;9.80;;
13967;SDS011;39536;52.198;9.920;2022-11-20T14:56:21;10.73;;;9.63;;